sensor_id;sensor_type;location;lat;lon;timestamp;P1;durP1;ratioP1;P2;durP2;ratioP2
29958;SDS011;16815;51.100;6.516;2023-02-08T00:01:24;14.60;;;7.93;;
29958;SDS011;16815;51.100;6.516;2023-02-08T00:03:51;12.37;;;7.87;;
29958;SDS011;16815;51.100;6.516;2023-02-08T00:06:17;13.53;;;8.27;;
29958;SDS011;16815;51.100;6.516;2023-02-08T00:08:43;14.70;;;8.83;;
29958;SDS011;16815;51.100;6.516;2023-02-08T00:11:09;10.57;;;7.90;;
29958;SDS011;16815;51.100;6.516;2023-02-08T00:13:36;12.10;;;7.97;;
29958;SDS011;16815;51.100;6.516;2023-02-08T00:16:02;11.20;;;8.00;;
29958;SDS011;16815;51.100;6.516;2023-02-08T00:18:28;10.97;;;8.57;;
29958;SDS011;16815;51.100;6.516;2023-02-08T00:20:54;11.10;;;8.37;;
29958;SDS011;16815;51.100;6.516;2023-02-08T00:23:21;10.17;;;7.93;;
29958;SDS011;16815;51.100;6.516;2023-02-08T00:25:47;11.43;;;7.67;;
29958;SDS011;16815;51.100;6.516;2023-02-08T00:28:14;11.67;;;8.30;;
29958;SDS011;16815;51.100;6.516;2023-02-08T00:30:40;10.50;;;7.47;;
29958;SDS011;16815;51.100;6.516;2023-02-08T00:33:06;13.57;;;7.83;;
29958;SDS011;16815;51.100;6.516;2023-02-08T00:35:32;11.73;;;8.57;;
29958;SDS011;16815;51.100;6.516;2023-02-08T00:37:58;13.07;;;8.97;;
29958;SDS011;16815;51.100;6.516;2023-02-08T00:40:24;10.73;;;7.97;;
29958;SDS011;16815;51.100;6.516;2023-02-08T00:42:50;9.17;;;7.47;;
29958;SDS011;16815;51.100;6.516;2023-02-08T00:45:16;13.07;;;8.70;;
29958;SDS011;16815;51.100;6.516;2023-02-08T00:47:42;12.97;;;8.73;;
29958;SDS011;16815;51.100;6.516;2023-02-08T00:50:09;10.67;;;8.37;;
29958;SDS011;16815;51.100;6.516;2023-02-08T00:52:35;11.63;;;8.50;;
29958;SDS011;16815;51.100;6.516;2023-02-08T00:55:01;13.83;;;9.00;;
29958;SDS011;16815;51.100;6.516;2023-02-08T00:57:27;12.70;;;8.50;;
29958;SDS011;16815;51.100;6.516;2023-02-08T00:59:53;14.27;;;9.60;;
29958;SDS011;16815;51.100;6.516;2023-02-08T01:02:19;15.97;;;9.33;;
29958;SDS011;16815;51.100;6.516;2023-02-08T01:04:45;13.10;;;9.20;;
29958;SDS011;16815;51.100;6.516;2023-02-08T01:07:11;14.43;;;8.90;;
29958;SDS011;16815;51.100;6.516;2023-02-08T01:09:37;12.40;;;9.47;;
29958;SDS011;16815;51.100;6.516;2023-02-08T01:12:03;11.23;;;8.43;;
29958;SDS011;16815;51.100;6.516;2023-02-08T01:14:29;12.57;;;9.50;;
29958;SDS011;16815;51.100;6.516;2023-02-08T01:16:55;14.27;;;9.50;;
29958;SDS011;16815;51.100;6.516;2023-02-08T01:19:21;12.23;;;8.83;;
29958;SDS011;16815;51.100;6.516;2023-02-08T01:21:47;13.40;;;9.17;;
29958;SDS011;16815;51.100;6.516;2023-02-08T01:24:13;11.97;;;9.17;;
29958;SDS011;16815;51.100;6.516;2023-02-08T01:26:39;14.70;;;9.90;;
29958;SDS011;16815;51.100;6.516;2023-02-08T01:29:06;12.50;;;8.80;;
29958;SDS011;16815;51.100;6.516;2023-02-08T01:31:34;16.50;;;9.37;;
29958;SDS011;16815;51.100;6.516;2023-02-08T01:34:00;12.97;;;9.80;;
29958;SDS011;16815;51.100;6.516;2023-02-08T01:36:27;12.00;;;9.10;;
29958;SDS011;16815;51.100;6.516;2023-02-08T01:38:53;15.00;;;9.10;;
29958;SDS011;16815;51.100;6.516;2023-02-08T01:41:24;14.87;;;9.47;;
29958;SDS011;16815;51.100;6.516;2023-02-08T01:44:01;14.13;;;9.27;;
29958;SDS011;16815;51.100;6.516;2023-02-08T01:46:28;12.80;;;9.27;;
29958;SDS011;16815;51.100;6.516;2023-02-08T01:48:55;14.33;;;10.13;;
29958;SDS011;16815;51.100;6.516;2023-02-08T01:51:24;14.73;;;9.60;;
29958;SDS011;16815;51.100;6.516;2023-02-08T01:53:51;11.27;;;9.40;;
29958;SDS011;16815;51.100;6.516;2023-02-08T01:56:22;22.00;;;9.40;;
29958;SDS011;16815;51.100;6.516;2023-02-08T01:58:50;10.97;;;8.30;;
29958;SDS011;16815;51.100;6.516;2023-02-08T02:01:17;14.57;;;9.67;;
29958;SDS011;16815;51.100;6.516;2023-02-08T02:03:43;11.43;;;8.90;;
29958;SDS011;16815;51.100;6.516;2023-02-08T02:06:13;16.60;;;9.30;;
29958;SDS011;16815;51.100;6.516;2023-02-08T02:08:43;11.53;;;9.57;;
29958;SDS011;16815;51.100;6.516;2023-02-08T02:11:11;13.00;;;9.07;;
29958;SDS011;16815;51.100;6.516;2023-02-08T02:13:38;11.03;;;8.57;;
29958;SDS011;16815;51.100;6.516;2023-02-08T02:16:04;15.90;;;9.20;;
29958;SDS011;16815;51.100;6.516;2023-02-08T02:18:30;14.30;;;9.60;;
29958;SDS011;16815;51.100;6.516;2023-02-08T02:29:05;13.80;;;9.57;;
29958;SDS011;16815;51.100;6.516;2023-02-08T02:31:40;12.57;;;8.43;;
29958;SDS011;16815;51.100;6.516;2023-02-08T02:34:22;10.80;;;8.87;;
29958;SDS011;16815;51.100;6.516;2023-02-08T02:39:49;11.63;;;8.70;;
29958;SDS011;16815;51.100;6.516;2023-02-08T02:45:05;13.30;;;9.80;;
29958;SDS011;16815;51.100;6.516;2023-02-08T02:47:44;17.23;;;9.50;;
29958;SDS011;16815;51.100;6.516;2023-02-08T02:50:28;11.10;;;9.00;;
29958;SDS011;16815;51.100;6.516;2023-02-08T02:53:00;13.93;;;9.70;;
29958;SDS011;16815;51.100;6.516;2023-02-08T02:55:28;13.10;;;9.57;;
29958;SDS011;16815;51.100;6.516;2023-02-08T02:57:55;12.87;;;9.20;;
29958;SDS011;16815;51.100;6.516;2023-02-08T03:00:24;13.03;;;9.23;;
29958;SDS011;16815;51.100;6.516;2023-02-08T03:02:50;14.63;;;9.67;;
29958;SDS011;16815;51.100;6.516;2023-02-08T03:05:16;11.90;;;9.33;;
29958;SDS011;16815;51.100;6.516;2023-02-08T03:08:00;13.27;;;8.40;;
29958;SDS011;16815;51.100;6.516;2023-02-08T03:10:47;13.13;;;9.30;;
29958;SDS011;16815;51.100;6.516;2023-02-08T03:13:19;13.53;;;8.50;;
29958;SDS011;16815;51.100;6.516;2023-02-08T03:15:52;13.30;;;9.07;;
29958;SDS011;16815;51.100;6.516;2023-02-08T03:18:35;13.40;;;8.97;;
29958;SDS011;16815;51.100;6.516;2023-02-08T03:21:10;9.93;;;8.13;;
29958;SDS011;16815;51.100;6.516;2023-02-08T03:23:38;11.20;;;8.13;;
29958;SDS011;16815;51.100;6.516;2023-02-08T03:34:10;13.50;;;8.80;;
29958;SDS011;16815;51.100;6.516;2023-02-08T03:39:09;14.53;;;9.13;;
29958;SDS011;16815;51.100;6.516;2023-02-08T03:41:37;11.33;;;8.83;;
29958;SDS011;16815;51.100;6.516;2023-02-08T03:44:06;13.47;;;8.87;;
29958;SDS011;16815;51.100;6.516;2023-02-08T03:46:35;13.57;;;9.37;;
29958;SDS011;16815;51.100;6.516;2023-02-08T03:49:06;14.23;;;9.60;;
29958;SDS011;16815;51.100;6.516;2023-02-08T03:51:33;12.53;;;8.97;;
29958;SDS011;16815;51.100;6.516;2023-02-08T03:54:00;11.73;;;9.33;;
29958;SDS011;16815;51.100;6.516;2023-02-08T03:56:38;13.33;;;8.73;;
29958;SDS011;16815;51.100;6.516;2023-02-08T03:59:07;14.40;;;8.93;;
29958;SDS011;16815;51.100;6.516;2023-02-08T04:01:43;15.63;;;9.10;;
29958;SDS011;16815;51.100;6.516;2023-02-08T04:04:09;12.87;;;9.23;;
29958;SDS011;16815;51.100;6.516;2023-02-08T04:06:36;13.83;;;9.40;;
29958;SDS011;16815;51.100;6.516;2023-02-08T04:09:02;14.33;;;9.70;;
29958;SDS011;16815;51.100;6.516;2023-02-08T04:11:28;14.50;;;8.90;;
29958;SDS011;16815;51.100;6.516;2023-02-08T04:13:54;13.43;;;9.87;;
29958;SDS011;16815;51.100;6.516;2023-02-08T04:16:20;31.43;;;15.23;;
29958;SDS011;16815;51.100;6.516;2023-02-08T04:18:46;33.23;;;18.17;;
29958;SDS011;16815;51.100;6.516;2023-02-08T04:21:12;42.07;;;23.20;;
29958;SDS011;16815;51.100;6.516;2023-02-08T04:23:38;29.77;;;15.97;;
29958;SDS011;16815;51.100;6.516;2023-02-08T04:26:04;17.57;;;12.50;;
29958;SDS011;16815;51.100;6.516;2023-02-08T04:28:32;16.70;;;10.50;;
29958;SDS011;16815;51.100;6.516;2023-02-08T04:30:58;14.57;;;10.40;;
29958;SDS011;16815;51.100;6.516;2023-02-08T04:33:25;19.80;;;10.53;;
29958;SDS011;16815;51.100;6.516;2023-02-08T04:35:51;19.43;;;11.47;;
29958;SDS011;16815;51.100;6.516;2023-02-08T04:38:17;16.30;;;10.30;;
29958;SDS011;16815;51.100;6.516;2023-02-08T04:40:43;16.93;;;9.77;;
29958;SDS011;16815;51.100;6.516;2023-02-08T04:43:09;15.23;;;11.30;;
29958;SDS011;16815;51.100;6.516;2023-02-08T04:45:35;14.53;;;9.93;;
29958;SDS011;16815;51.100;6.516;2023-02-08T04:48:01;15.37;;;9.73;;
29958;SDS011;16815;51.100;6.516;2023-02-08T04:50:28;15.47;;;10.47;;
29958;SDS011;16815;51.100;6.516;2023-02-08T04:52:53;13.97;;;9.43;;
29958;SDS011;16815;51.100;6.516;2023-02-08T04:55:19;15.83;;;10.03;;
29958;SDS011;16815;51.100;6.516;2023-02-08T04:57:45;15.10;;;9.80;;
29958;SDS011;16815;51.100;6.516;2023-02-08T05:00:12;14.43;;;9.17;;
29958;SDS011;16815;51.100;6.516;2023-02-08T05:02:38;17.10;;;9.53;;
29958;SDS011;16815;51.100;6.516;2023-02-08T05:05:04;14.53;;;10.23;;
29958;SDS011;16815;51.100;6.516;2023-02-08T05:07:30;16.00;;;10.00;;
29958;SDS011;16815;51.100;6.516;2023-02-08T05:09:56;14.77;;;9.40;;
29958;SDS011;16815;51.100;6.516;2023-02-08T05:12:22;18.10;;;10.03;;
29958;SDS011;16815;51.100;6.516;2023-02-08T05:14:48;14.77;;;10.20;;
29958;SDS011;16815;51.100;6.516;2023-02-08T05:17:14;15.90;;;10.23;;
29958;SDS011;16815;51.100;6.516;2023-02-08T05:19:40;17.13;;;10.67;;
29958;SDS011;16815;51.100;6.516;2023-02-08T05:22:05;17.77;;;10.27;;
29958;SDS011;16815;51.100;6.516;2023-02-08T05:24:31;17.30;;;10.37;;
29958;SDS011;16815;51.100;6.516;2023-02-08T05:26:57;15.73;;;10.20;;
29958;SDS011;16815;51.100;6.516;2023-02-08T05:29:23;16.57;;;10.77;;
29958;SDS011;16815;51.100;6.516;2023-02-08T05:31:49;13.50;;;9.60;;
29958;SDS011;16815;51.100;6.516;2023-02-08T05:34:15;16.90;;;10.33;;
29958;SDS011;16815;51.100;6.516;2023-02-08T05:36:41;14.30;;;10.57;;
29958;SDS011;16815;51.100;6.516;2023-02-08T05:39:07;12.80;;;9.60;;
29958;SDS011;16815;51.100;6.516;2023-02-08T05:41:33;14.93;;;10.27;;
29958;SDS011;16815;51.100;6.516;2023-02-08T05:43:59;18.37;;;11.23;;
29958;SDS011;16815;51.100;6.516;2023-02-08T05:46:25;17.23;;;9.83;;
29958;SDS011;16815;51.100;6.516;2023-02-08T05:48:51;18.67;;;10.53;;
29958;SDS011;16815;51.100;6.516;2023-02-08T05:51:17;14.10;;;10.30;;
29958;SDS011;16815;51.100;6.516;2023-02-08T05:53:44;14.93;;;9.53;;
29958;SDS011;16815;51.100;6.516;2023-02-08T05:56:10;19.97;;;11.00;;
29958;SDS011;16815;51.100;6.516;2023-02-08T05:58:36;17.57;;;10.23;;
29958;SDS011;16815;51.100;6.516;2023-02-08T06:01:09;17.07;;;10.80;;
29958;SDS011;16815;51.100;6.516;2023-02-08T06:03:35;12.97;;;9.30;;
29958;SDS011;16815;51.100;6.516;2023-02-08T06:06:01;16.77;;;10.17;;
29958;SDS011;16815;51.100;6.516;2023-02-08T06:08:27;15.57;;;11.20;;
29958;SDS011;16815;51.100;6.516;2023-02-08T06:10:53;14.33;;;9.13;;
29958;SDS011;16815;51.100;6.516;2023-02-08T06:13:19;13.93;;;10.07;;
29958;SDS011;16815;51.100;6.516;2023-02-08T06:15:44;15.40;;;9.97;;
29958;SDS011;16815;51.100;6.516;2023-02-08T06:18:10;15.83;;;10.57;;
29958;SDS011;16815;51.100;6.516;2023-02-08T06:20:37;14.00;;;9.87;;
29958;SDS011;16815;51.100;6.516;2023-02-08T06:23:03;18.90;;;10.17;;
29958;SDS011;16815;51.100;6.516;2023-02-08T06:25:29;15.17;;;10.27;;
29958;SDS011;16815;51.100;6.516;2023-02-08T06:27:55;14.93;;;10.87;;
29958;SDS011;16815;51.100;6.516;2023-02-08T06:30:21;15.20;;;10.50;;
29958;SDS011;16815;51.100;6.516;2023-02-08T06:32:47;14.73;;;10.73;;
29958;SDS011;16815;51.100;6.516;2023-02-08T06:35:12;17.83;;;10.40;;
29958;SDS011;16815;51.100;6.516;2023-02-08T06:37:38;15.07;;;10.03;;
29958;SDS011;16815;51.100;6.516;2023-02-08T06:40:05;13.40;;;10.20;;
29958;SDS011;16815;51.100;6.516;2023-02-08T06:42:31;15.30;;;9.83;;
29958;SDS011;16815;51.100;6.516;2023-02-08T06:44:57;17.00;;;10.50;;
29958;SDS011;16815;51.100;6.516;2023-02-08T06:47:24;16.93;;;10.30;;
29958;SDS011;16815;51.100;6.516;2023-02-08T06:49:50;18.00;;;10.70;;
29958;SDS011;16815;51.100;6.516;2023-02-08T06:52:16;16.60;;;11.10;;
29958;SDS011;16815;51.100;6.516;2023-02-08T06:54:42;15.07;;;10.30;;
29958;SDS011;16815;51.100;6.516;2023-02-08T06:57:08;14.83;;;10.80;;
29958;SDS011;16815;51.100;6.516;2023-02-08T06:59:36;15.83;;;11.53;;
29958;SDS011;16815;51.100;6.516;2023-02-08T07:02:02;15.43;;;9.97;;
29958;SDS011;16815;51.100;6.516;2023-02-08T07:04:29;17.17;;;10.53;;
29958;SDS011;16815;51.100;6.516;2023-02-08T07:06:55;15.00;;;9.87;;
29958;SDS011;16815;51.100;6.516;2023-02-08T07:09:21;16.27;;;10.20;;
29958;SDS011;16815;51.100;6.516;2023-02-08T07:11:46;15.70;;;11.60;;
29958;SDS011;16815;51.100;6.516;2023-02-08T07:14:13;17.60;;;11.40;;
29958;SDS011;16815;51.100;6.516;2023-02-08T07:16:39;18.57;;;11.47;;
29958;SDS011;16815;51.100;6.516;2023-02-08T07:19:05;16.43;;;10.43;;
29958;SDS011;16815;51.100;6.516;2023-02-08T07:21:31;17.90;;;11.37;;
29958;SDS011;16815;51.100;6.516;2023-02-08T07:23:57;17.70;;;12.00;;
29958;SDS011;16815;51.100;6.516;2023-02-08T07:26:23;19.33;;;11.43;;
29958;SDS011;16815;51.100;6.516;2023-02-08T07:28:49;14.27;;;10.97;;
29958;SDS011;16815;51.100;6.516;2023-02-08T07:31:16;19.53;;;12.63;;
29958;SDS011;16815;51.100;6.516;2023-02-08T07:33:42;19.43;;;11.73;;
29958;SDS011;16815;51.100;6.516;2023-02-08T07:36:08;14.97;;;10.70;;
29958;SDS011;16815;51.100;6.516;2023-02-08T07:38:35;17.73;;;10.90;;
29958;SDS011;16815;51.100;6.516;2023-02-08T07:41:02;16.47;;;11.13;;
29958;SDS011;16815;51.100;6.516;2023-02-08T07:43:28;17.00;;;10.27;;
29958;SDS011;16815;51.100;6.516;2023-02-08T07:45:54;17.77;;;10.50;;
29958;SDS011;16815;51.100;6.516;2023-02-08T07:48:20;15.20;;;10.23;;
29958;SDS011;16815;51.100;6.516;2023-02-08T07:50:46;16.40;;;10.17;;
29958;SDS011;16815;51.100;6.516;2023-02-08T07:53:12;13.93;;;10.33;;
29958;SDS011;16815;51.100;6.516;2023-02-08T07:55:38;15.50;;;9.97;;
29958;SDS011;16815;51.100;6.516;2023-02-08T07:58:04;17.93;;;10.63;;
29958;SDS011;16815;51.100;6.516;2023-02-08T08:00:30;22.57;;;11.53;;
29958;SDS011;16815;51.100;6.516;2023-02-08T08:02:56;23.10;;;13.53;;
29958;SDS011;16815;51.100;6.516;2023-02-08T08:05:22;18.97;;;12.87;;
29958;SDS011;16815;51.100;6.516;2023-02-08T08:07:48;20.90;;;12.60;;
29958;SDS011;16815;51.100;6.516;2023-02-08T08:10:14;20.37;;;12.43;;
29958;SDS011;16815;51.100;6.516;2023-02-08T08:12:40;20.03;;;12.97;;
29958;SDS011;16815;51.100;6.516;2023-02-08T08:15:06;23.47;;;12.50;;
29958;SDS011;16815;51.100;6.516;2023-02-08T08:17:32;20.23;;;13.40;;
29958;SDS011;16815;51.100;6.516;2023-02-08T08:19:58;17.57;;;11.60;;
29958;SDS011;16815;51.100;6.516;2023-02-08T08:22:24;20.27;;;12.63;;
29958;SDS011;16815;51.100;6.516;2023-02-08T08:24:50;20.67;;;13.13;;
29958;SDS011;16815;51.100;6.516;2023-02-08T08:27:16;21.83;;;12.83;;
29958;SDS011;16815;51.100;6.516;2023-02-08T08:29:42;19.00;;;12.40;;
29958;SDS011;16815;51.100;6.516;2023-02-08T08:32:08;17.80;;;11.23;;
29958;SDS011;16815;51.100;6.516;2023-02-08T08:34:34;16.50;;;10.33;;
29958;SDS011;16815;51.100;6.516;2023-02-08T08:37:00;14.90;;;10.10;;
29958;SDS011;16815;51.100;6.516;2023-02-08T08:39:26;14.47;;;9.27;;
29958;SDS011;16815;51.100;6.516;2023-02-08T08:41:52;15.47;;;9.73;;
29958;SDS011;16815;51.100;6.516;2023-02-08T08:44:19;12.50;;;8.60;;
29958;SDS011;16815;51.100;6.516;2023-02-08T08:46:45;12.33;;;9.00;;
29958;SDS011;16815;51.100;6.516;2023-02-08T08:49:11;14.17;;;9.43;;
29958;SDS011;16815;51.100;6.516;2023-02-08T08:51:36;17.20;;;9.50;;
29958;SDS011;16815;51.100;6.516;2023-02-08T08:54:03;16.17;;;8.70;;
29958;SDS011;16815;51.100;6.516;2023-02-08T08:56:30;15.43;;;8.87;;
29958;SDS011;16815;51.100;6.516;2023-02-08T08:58:56;17.20;;;9.23;;
29958;SDS011;16815;51.100;6.516;2023-02-08T09:01:22;11.70;;;8.30;;
29958;SDS011;16815;51.100;6.516;2023-02-08T09:03:48;13.47;;;8.80;;
29958;SDS011;16815;51.100;6.516;2023-02-08T09:06:14;15.63;;;9.27;;
29958;SDS011;16815;51.100;6.516;2023-02-08T09:08:40;10.50;;;8.57;;
29958;SDS011;16815;51.100;6.516;2023-02-08T09:11:10;13.17;;;8.87;;
29958;SDS011;16815;51.100;6.516;2023-02-08T09:13:36;12.60;;;8.97;;
29958;SDS011;16815;51.100;6.516;2023-02-08T09:16:09;18.20;;;9.37;;
29958;SDS011;16815;51.100;6.516;2023-02-08T09:18:36;14.53;;;8.77;;
29958;SDS011;16815;51.100;6.516;2023-02-08T09:21:06;12.40;;;9.70;;
29958;SDS011;16815;51.100;6.516;2023-02-08T09:23:32;15.70;;;9.87;;
29958;SDS011;16815;51.100;6.516;2023-02-08T09:26:00;16.53;;;9.30;;
29958;SDS011;16815;51.100;6.516;2023-02-08T09:28:26;11.17;;;8.80;;
29958;SDS011;16815;51.100;6.516;2023-02-08T09:30:52;14.23;;;9.07;;
29958;SDS011;16815;51.100;6.516;2023-02-08T09:33:18;12.60;;;8.60;;
29958;SDS011;16815;51.100;6.516;2023-02-08T09:35:44;16.20;;;8.97;;
29958;SDS011;16815;51.100;6.516;2023-02-08T09:38:10;14.47;;;8.80;;
29958;SDS011;16815;51.100;6.516;2023-02-08T09:40:50;10.87;;;8.67;;
29958;SDS011;16815;51.100;6.516;2023-02-08T09:43:21;13.37;;;8.73;;
29958;SDS011;16815;51.100;6.516;2023-02-08T09:45:54;12.80;;;9.03;;
29958;SDS011;16815;51.100;6.516;2023-02-08T09:48:23;12.73;;;8.77;;
29958;SDS011;16815;51.100;6.516;2023-02-08T09:50:57;12.73;;;9.13;;
29958;SDS011;16815;51.100;6.516;2023-02-08T09:53:29;10.43;;;8.40;;
29958;SDS011;16815;51.100;6.516;2023-02-08T09:55:57;12.40;;;8.50;;
29958;SDS011;16815;51.100;6.516;2023-02-08T09:58:34;12.10;;;8.23;;
29958;SDS011;16815;51.100;6.516;2023-02-08T10:01:02;10.70;;;7.70;;
29958;SDS011;16815;51.100;6.516;2023-02-08T10:05:54;10.87;;;7.37;;
29958;SDS011;16815;51.100;6.516;2023-02-08T10:08:20;9.83;;;7.90;;
29958;SDS011;16815;51.100;6.516;2023-02-08T10:10:52;11.57;;;7.50;;
29958;SDS011;16815;51.100;6.516;2023-02-08T10:16:07;10.63;;;7.43;;
29958;SDS011;16815;51.100;6.516;2023-02-08T10:18:39;10.17;;;6.93;;
29958;SDS011;16815;51.100;6.516;2023-02-08T10:31:49;9.87;;;7.43;;
29958;SDS011;16815;51.100;6.516;2023-02-08T10:34:24;10.73;;;7.60;;
29958;SDS011;16815;51.100;6.516;2023-02-08T10:36:54;12.20;;;8.10;;
29958;SDS011;16815;51.100;6.516;2023-02-08T10:39:25;11.13;;;6.43;;
29958;SDS011;16815;51.100;6.516;2023-02-08T10:41:51;11.10;;;7.17;;
29958;SDS011;16815;51.100;6.516;2023-02-08T10:44:33;10.57;;;7.10;;
29958;SDS011;16815;51.100;6.516;2023-02-08T10:47:09;12.07;;;7.53;;
29958;SDS011;16815;51.100;6.516;2023-02-08T10:49:47;10.73;;;7.57;;
29958;SDS011;16815;51.100;6.516;2023-02-08T10:52:14;11.00;;;6.93;;
29958;SDS011;16815;51.100;6.516;2023-02-08T10:54:40;10.47;;;7.20;;
29958;SDS011;16815;51.100;6.516;2023-02-08T10:57:10;10.00;;;6.87;;
29958;SDS011;16815;51.100;6.516;2023-02-08T11:02:37;9.87;;;6.23;;
29958;SDS011;16815;51.100;6.516;2023-02-08T11:05:09;10.67;;;6.83;;
29958;SDS011;16815;51.100;6.516;2023-02-08T11:07:37;11.33;;;6.67;;
29958;SDS011;16815;51.100;6.516;2023-02-08T11:10:20;9.93;;;7.50;;
29958;SDS011;16815;51.100;6.516;2023-02-08T11:12:53;8.80;;;5.70;;
29958;SDS011;16815;51.100;6.516;2023-02-08T11:15:20;13.17;;;7.00;;
29958;SDS011;16815;51.100;6.516;2023-02-08T11:17:51;9.20;;;6.40;;
29958;SDS011;16815;51.100;6.516;2023-02-08T11:20:25;9.03;;;6.00;;
29958;SDS011;16815;51.100;6.516;2023-02-08T11:22:53;10.60;;;6.77;;
29958;SDS011;16815;51.100;6.516;2023-02-08T11:25:30;8.90;;;6.57;;
29958;SDS011;16815;51.100;6.516;2023-02-08T11:27:56;7.40;;;6.03;;
29958;SDS011;16815;51.100;6.516;2023-02-08T11:30:24;8.43;;;6.40;;
29958;SDS011;16815;51.100;6.516;2023-02-08T11:33:12;7.57;;;5.83;;
29958;SDS011;16815;51.100;6.516;2023-02-08T11:35:36;11.17;;;6.83;;
29958;SDS011;16815;51.100;6.516;2023-02-08T11:38:02;8.57;;;6.27;;
29958;SDS011;16815;51.100;6.516;2023-02-08T11:40:29;8.90;;;6.27;;
29958;SDS011;16815;51.100;6.516;2023-02-08T11:42:56;11.67;;;6.60;;
29958;SDS011;16815;51.100;6.516;2023-02-08T11:45:23;7.20;;;6.10;;
29958;SDS011;16815;51.100;6.516;2023-02-08T11:47:50;11.37;;;6.33;;
29958;SDS011;16815;51.100;6.516;2023-02-08T11:50:23;7.80;;;6.43;;
29958;SDS011;16815;51.100;6.516;2023-02-08T11:52:59;9.00;;;6.47;;
29958;SDS011;16815;51.100;6.516;2023-02-08T11:55:27;10.63;;;6.63;;
29958;SDS011;16815;51.100;6.516;2023-02-08T11:58:00;8.50;;;6.27;;
29958;SDS011;16815;51.100;6.516;2023-02-08T12:00:27;8.43;;;6.20;;
29958;SDS011;16815;51.100;6.516;2023-02-08T12:02:57;6.87;;;5.53;;
29958;SDS011;16815;51.100;6.516;2023-02-08T12:05:28;8.83;;;5.90;;
29958;SDS011;16815;51.100;6.516;2023-02-08T12:13:19;8.40;;;5.87;;
29958;SDS011;16815;51.100;6.516;2023-02-08T12:15:52;9.80;;;5.67;;
29958;SDS011;16815;51.100;6.516;2023-02-08T12:20:55;8.47;;;5.60;;
29958;SDS011;16815;51.100;6.516;2023-02-08T12:23:37;8.80;;;5.83;;
29958;SDS011;16815;51.100;6.516;2023-02-08T12:28:51;8.50;;;5.33;;
29958;SDS011;16815;51.100;6.516;2023-02-08T12:31:31;6.77;;;5.30;;
29958;SDS011;16815;51.100;6.516;2023-02-08T12:39:04;8.73;;;5.50;;
29958;SDS011;16815;51.100;6.516;2023-02-08T12:41:53;10.47;;;5.60;;
29958;SDS011;16815;51.100;6.516;2023-02-08T12:46:57;8.00;;;5.10;;
29958;SDS011;16815;51.100;6.516;2023-02-08T12:54:54;8.87;;;5.30;;
29958;SDS011;16815;51.100;6.516;2023-02-08T12:57:23;8.60;;;5.30;;
29958;SDS011;16815;51.100;6.516;2023-02-08T13:00:00;6.13;;;5.30;;
29958;SDS011;16815;51.100;6.516;2023-02-08T13:02:45;7.27;;;5.30;;
29958;SDS011;16815;51.100;6.516;2023-02-08T13:05:19;7.90;;;5.50;;
29958;SDS011;16815;51.100;6.516;2023-02-08T13:07:47;6.87;;;5.00;;
29958;SDS011;16815;51.100;6.516;2023-02-08T13:12:45;9.57;;;5.47;;
29958;SDS011;16815;51.100;6.516;2023-02-08T13:17:40;7.73;;;5.40;;
29958;SDS011;16815;51.100;6.516;2023-02-08T13:22:40;6.33;;;5.07;;
29958;SDS011;16815;51.100;6.516;2023-02-08T13:25:09;6.83;;;5.00;;
29958;SDS011;16815;51.100;6.516;2023-02-08T13:27:39;6.47;;;4.60;;
29958;SDS011;16815;51.100;6.516;2023-02-08T13:30:05;6.63;;;5.03;;
29958;SDS011;16815;51.100;6.516;2023-02-08T13:32:35;7.60;;;4.67;;
29958;SDS011;16815;51.100;6.516;2023-02-08T13:35:05;6.20;;;5.40;;
29958;SDS011;16815;51.100;6.516;2023-02-08T13:37:37;6.33;;;5.07;;
29958;SDS011;16815;51.100;6.516;2023-02-08T13:40:04;7.10;;;4.70;;
29958;SDS011;16815;51.100;6.516;2023-02-08T13:42:40;6.77;;;4.83;;
29958;SDS011;16815;51.100;6.516;2023-02-08T13:45:08;6.90;;;4.77;;
29958;SDS011;16815;51.100;6.516;2023-02-08T13:47:38;6.83;;;4.73;;
29958;SDS011;16815;51.100;6.516;2023-02-08T13:52:51;6.83;;;4.70;;
29958;SDS011;16815;51.100;6.516;2023-02-08T13:57:58;8.17;;;4.80;;
29958;SDS011;16815;51.100;6.516;2023-02-08T14:00:27;8.23;;;5.43;;
29958;SDS011;16815;51.100;6.516;2023-02-08T14:07:58;6.67;;;4.60;;
29958;SDS011;16815;51.100;6.516;2023-02-08T14:15:33;5.43;;;4.40;;
29958;SDS011;16815;51.100;6.516;2023-02-08T14:18:00;5.93;;;4.50;;
29958;SDS011;16815;51.100;6.516;2023-02-08T14:22:54;5.63;;;4.13;;
29958;SDS011;16815;51.100;6.516;2023-02-08T14:25:37;5.37;;;3.70;;
29958;SDS011;16815;51.100;6.516;2023-02-08T14:28:05;5.53;;;3.83;;
29958;SDS011;16815;51.100;6.516;2023-02-08T14:30:33;5.13;;;4.10;;
29958;SDS011;16815;51.100;6.516;2023-02-08T14:35:26;4.63;;;4.07;;
29958;SDS011;16815;51.100;6.516;2023-02-08T14:45:48;4.53;;;3.60;;
29958;SDS011;16815;51.100;6.516;2023-02-08T14:48:16;5.07;;;3.67;;
29958;SDS011;16815;51.100;6.516;2023-02-08T14:50:49;5.30;;;3.30;;
29958;SDS011;16815;51.100;6.516;2023-02-08T14:53:22;4.00;;;3.30;;
29958;SDS011;16815;51.100;6.516;2023-02-08T14:58:19;5.20;;;3.87;;
29958;SDS011;16815;51.100;6.516;2023-02-08T15:00:46;6.80;;;3.80;;
29958;SDS011;16815;51.100;6.516;2023-02-08T15:03:15;6.27;;;3.67;;
29958;SDS011;16815;51.100;6.516;2023-02-08T15:06:00;4.07;;;3.30;;
29958;SDS011;16815;51.100;6.516;2023-02-08T15:08:28;7.93;;;3.97;;
29958;SDS011;16815;51.100;6.516;2023-02-08T15:10:54;3.70;;;3.40;;
29958;SDS011;16815;51.100;6.516;2023-02-08T15:13:21;5.30;;;3.73;;
29958;SDS011;16815;51.100;6.516;2023-02-08T15:15:53;5.03;;;3.87;;
29958;SDS011;16815;51.100;6.516;2023-02-08T15:18:21;4.80;;;4.17;;
29958;SDS011;16815;51.100;6.516;2023-02-08T15:20:59;5.57;;;3.43;;
29958;SDS011;16815;51.100;6.516;2023-02-08T15:23:26;3.73;;;3.40;;
29958;SDS011;16815;51.100;6.516;2023-02-08T15:26:01;5.73;;;3.97;;
29958;SDS011;16815;51.100;6.516;2023-02-08T15:28:28;5.23;;;3.70;;
29958;SDS011;16815;51.100;6.516;2023-02-08T15:30:58;5.57;;;3.93;;
29958;SDS011;16815;51.100;6.516;2023-02-08T15:33:25;6.83;;;3.87;;
29958;SDS011;16815;51.100;6.516;2023-02-08T15:35:58;5.80;;;4.20;;
29958;SDS011;16815;51.100;6.516;2023-02-08T15:38:24;4.93;;;3.53;;
29958;SDS011;16815;51.100;6.516;2023-02-08T15:41:01;6.03;;;3.67;;
29958;SDS011;16815;51.100;6.516;2023-02-08T15:43:27;4.77;;;3.30;;
29958;SDS011;16815;51.100;6.516;2023-02-08T15:45:56;5.93;;;3.20;;
29958;SDS011;16815;51.100;6.516;2023-02-08T15:48:23;4.10;;;3.60;;
29958;SDS011;16815;51.100;6.516;2023-02-08T15:50:49;5.90;;;3.30;;
29958;SDS011;16815;51.100;6.516;2023-02-08T15:53:16;9.10;;;3.43;;
29958;SDS011;16815;51.100;6.516;2023-02-08T15:55:46;3.83;;;3.00;;
29958;SDS011;16815;51.100;6.516;2023-02-08T15:58:15;3.57;;;3.27;;
29958;SDS011;16815;51.100;6.516;2023-02-08T16:00:42;3.87;;;2.83;;
29958;SDS011;16815;51.100;6.516;2023-02-08T16:03:16;5.07;;;3.23;;
29958;SDS011;16815;51.100;6.516;2023-02-08T16:05:47;3.53;;;3.23;;
29958;SDS011;16815;51.100;6.516;2023-02-08T16:08:13;4.10;;;3.03;;
29958;SDS011;16815;51.100;6.516;2023-02-08T16:10:43;6.93;;;3.20;;
29958;SDS011;16815;51.100;6.516;2023-02-08T16:13:19;3.50;;;3.20;;
29958;SDS011;16815;51.100;6.516;2023-02-08T16:15:52;5.30;;;3.53;;
29958;SDS011;16815;51.100;6.516;2023-02-08T16:18:29;5.47;;;3.33;;
29958;SDS011;16815;51.100;6.516;2023-02-08T16:20:56;7.47;;;2.90;;
29958;SDS011;16815;51.100;6.516;2023-02-08T16:23:27;4.10;;;2.80;;
29958;SDS011;16815;51.100;6.516;2023-02-08T16:25:53;3.17;;;2.87;;
29958;SDS011;16815;51.100;6.516;2023-02-08T16:28:28;3.40;;;2.80;;